Time;durP1;ratioP1;P1;durP2;ratioP2;P2;SDS_P1;SDS_P2;PMS_P1;PMS_P2;Temp;Humidity;BMP_temperature;BMP_pressure;BME280_temperature;BME280_humidity;BME280_pressure;Samples;Min_cycle;Max_cycle;Signal;HPM_P1;HPM_P2
2022/06/18 00:01:52;;;;;;;3.53;2.85;;;17.80;99.90;;;;;;21091125;28;20079;-78
2022/06/18 00:22:37;;;;;;;4.55;2.70;;;17.50;99.90;;;;;;21090846;28;20035;-79
2022/06/18 00:32:38;;;;;;;4.60;2.60;;;17.40;99.90;;;;;;21059154;28;20082;-79
2022/06/18 00:42:40;;;;;;;5.33;2.80;;;18.10;99.90;;;;;;21042568;28;20040;-78
2022/06/18 00:52:53;;;;;;;5.97;3.33;;;18.30;99.90;;;;;;21100606;28;20452;-78
2022/06/18 01:02:54;;;;;;;5.07;3.25;;;18.30;99.90;;;;;;21078425;28;20051;-78
2022/06/18 01:12:57;;;;;;;5.03;3.70;;;18.30;99.90;;;;;;21090257;28;20093;-78
2022/06/18 01:23:20;;;;;;;5.45;4.07;;;18.30;99.90;;;;;;21074968;28;20039;-78
2022/06/18 01:33:21;;;;;;;5.80;2.55;;;18.10;99.90;;;;;;21072065;28;20028;-78
2022/06/18 01:43:25;;;;;;;4.68;3.20;;;18.20;99.90;;;;;;21072605;28;20509;-78
2022/06/18 01:53:35;;;;;;;6.32;3.80;;;18.10;99.90;;;;;;21076409;28;20626;-78
2022/06/18 02:03:37;;;;;;;10.30;4.03;;;17.50;99.90;;;;;;21068065;28;20131;-77
2022/06/18 02:13:43;;;;;;;5.78;2.92;;;16.70;99.90;;;;;;21067082;28;20036;-78
2022/06/18 02:23:44;;;;;;;5.20;3.60;;;16.80;99.90;;;;;;21101311;28;20047;-77
2022/06/18 02:33:58;;;;;;;5.30;3.88;;;17.10;99.90;;;;;;21074308;28;20032;-77
2022/06/18 02:43:59;;;;;;;6.82;3.60;;;17.10;99.90;;;;;;21072075;28;20058;-77
2022/06/18 02:54:00;;;;;;;7.17;3.47;;;17.20;99.90;;;;;;21087514;28;20054;-77
2022/06/18 03:04:02;;;;;;;6.77;3.43;;;17.10;99.90;;;;;;21083888;28;20729;-78
2022/06/18 03:14:07;;;;;;;4.63;3.38;;;17.00;99.90;;;;;;21066441;28;20040;-77
2022/06/18 03:24:09;;;;;;;9.25;3.75;;;17.00;99.90;;;;;;21070725;28;20402;-77
2022/06/18 03:34:11;;;;;;;7.80;3.65;;;16.80;99.90;;;;;;21070384;28;20544;-77
2022/06/18 03:44:12;;;;;;;12.93;4.03;;;16.80;99.90;;;;;;21064658;28;20044;-77
2022/06/18 03:54:13;;;;;;;4.83;3.70;;;16.80;99.90;;;;;;21061636;28;20039;-77
2022/06/18 04:04:15;;;;;;;5.18;3.20;;;16.70;99.90;;;;;;21060710;28;20048;-77
2022/06/18 04:14:22;;;;;;;4.82;3.65;;;16.70;99.90;;;;;;21060544;28;20051;-77
2022/06/18 04:24:33;;;;;;;4.68;3.65;;;16.70;99.90;;;;;;21060057;28;20105;-77
2022/06/18 04:34:34;;;;;;;5.93;4.10;;;16.70;99.90;;;;;;21065060;28;20540;-77
2022/06/18 04:44:53;;;;;;;6.20;3.95;;;16.80;99.90;;;;;;21077858;28;20035;-77
2022/06/18 04:55:08;;;;;;;6.40;3.40;;;16.80;99.90;;;;;;21070917;28;20171;-77
2022/06/18 05:05:16;;;;;;;4.20;3.00;;;17.20;99.90;;;;;;21073209;28;20040;-77
2022/06/18 05:15:39;;;;;;;7.70;3.58;;;17.60;99.90;;;;;;21088211;28;20383;-77
2022/06/18 05:25:41;;;;;;;8.30;3.63;;;18.00;99.90;;;;;;21081641;28;20108;-77
2022/06/18 05:35:44;;;;;;;4.75;3.13;;;18.00;99.90;;;;;;21090788;28;20040;-78
2022/06/18 05:45:46;;;;;;;6.25;3.45;;;18.10;99.90;;;;;;21002546;22;20049;-76
2022/06/18 05:55:46;;;;;;;4.40;3.60;;;18.30;99.90;;;;;;20968588;28;20528;-76
2022/06/18 06:05:58;;;;;;;4.40;3.30;;;18.60;99.90;;;;;;20920598;28;20187;-77
2022/06/18 06:15:59;;;;;;;10.03;3.57;;;19.20;99.90;;;;;;20953251;28;20051;-77
2022/06/18 06:26:00;;;;;;;7.90;3.30;;;19.80;99.90;;;;;;20992146;28;20036;-77
2022/06/18 06:36:01;;;;;;;3.88;3.10;;;20.00;99.90;;;;;;20972169;28;20488;-76
2022/06/18 06:46:02;;;;;;;7.43;3.20;;;20.30;99.90;;;;;;20920991;28;20066;-77
2022/06/18 07:06:22;;;;;;;3.25;2.78;;;21.50;99.90;;;;;;20976247;28;20051;-77
2022/06/18 07:16:23;;;;;;;3.08;2.55;;;22.10;99.90;;;;;;20920632;28;20411;-77
2022/06/18 07:26:24;;;;;;;3.87;2.67;;;22.20;99.90;;;;;;20907233;28;20137;-76
2022/06/18 07:36:26;;;;;;;8.83;2.57;;;22.40;99.90;;;;;;20892951;28;20704;-76
2022/06/18 07:46:27;;;;;;;2.53;1.88;;;23.20;99.90;;;;;;20869910;28;20087;-77
2022/06/18 07:56:28;;;;;;;2.83;2.27;;;23.90;99.90;;;;;;20980347;28;20036;-76
2022/06/18 08:06:29;;;;;;;4.82;2.35;;;24.50;99.90;;;;;;20912552;28;20082;-77
2022/06/18 08:16:30;;;;;;;;;;;25.10;99.90;;;;;;20905729;28;20697;-77
2022/06/18 08:26:32;;;;;;;5.73;2.00;;;25.50;99.90;;;;;;20952685;28;19912;-76
2022/06/18 08:36:33;;;;;;;3.60;2.10;;;26.20;99.90;;;;;;20963979;28;20120;-77
2022/06/18 08:46:55;;;;;;;6.85;1.88;;;26.50;99.90;;;;;;21007487;28;20036;-77
2022/06/18 08:57:01;;;;;;;4.63;2.22;;;27.80;99.90;;;;;;21002185;28;20041;-76
2022/06/18 09:07:20;;;;;;;4.72;2.13;;;28.60;99.90;;;;;;21000727;28;20409;-77
2022/06/18 09:17:33;;;;;;;2.53;2.10;;;29.10;99.90;;;;;;20982955;28;20036;-77
2022/06/18 09:27:48;;;;;;;4.72;1.73;;;29.90;99.90;;;;;;21001427;28;20115;-77
2022/06/18 09:38:04;;;;;;;2.42;1.95;;;29.30;99.90;;;;;;21000220;28;20052;-77
2022/06/18 09:48:05;;;;;;;4.10;1.88;;;30.40;99.90;;;;;;20942258;28;20697;-77
2022/06/18 09:58:11;;;;;;;4.43;1.95;;;30.00;99.90;;;;;;20909728;28;20087;-77
2022/06/18 10:08:13;;;;;;;2.97;1.90;;;31.50;99.90;;;;;;20917525;28;20041;-76
2022/06/18 10:18:26;;;;;;;2.80;1.90;;;32.10;99.00;;;;;;20912535;28;20037;-75
2022/06/18 10:28:45;;;;;;;3.20;1.75;;;32.50;99.90;;;;;;20911508;28;20399;-75
2022/06/18 10:39:11;;;;;;;6.07;2.10;;;32.20;99.90;;;;;;20909100;28;20416;-76
2022/06/18 10:49:12;;;;;;;4.75;1.90;;;33.20;96.00;;;;;;20948988;28;20036;-76
2022/06/18 10:59:12;;;;;;;3.53;1.60;;;33.10;96.40;;;;;;20955236;28;20036;-76
2022/06/18 11:09:22;;;;;;;8.33;1.57;;;33.40;96.70;;;;;;20991761;28;20051;-75
2022/06/18 11:19:28;;;;;;;2.17;1.50;;;33.20;94.50;;;;;;20947320;28;20283;-76
2022/06/18 11:29:33;;;;;;;4.60;1.73;;;33.30;94.70;;;;;;20945772;28;20043;-77
2022/06/18 11:39:39;;;;;;;2.63;1.40;;;34.60;94.80;;;;;;20984191;22;20098;-78
2022/06/18 11:50:07;;;;;;;7.60;2.13;;;34.90;91.50;;;;;;21080578;28;20048;-78
2022/06/18 12:00:28;;;;;;;4.43;1.60;;;35.60;92.30;;;;;;21054491;28;20502;-77
2022/06/18 12:10:56;;;;;;;4.32;1.60;;;35.40;91.70;;;;;;21052968;28;20059;-79
2022/06/18 12:21:26;;;;;;;5.95;1.50;;;36.10;90.30;;;;;;21056408;28;20036;-79
2022/06/18 12:31:43;;;;;;;12.63;3.10;;;36.10;89.70;;;;;;21055727;28;20071;-79
2022/06/18 12:42:01;;;;;;;14.50;2.92;;;34.90;85.40;;;;;;21056067;28;20040;-79
2022/06/18 12:52:05;;;;;;;17.65;2.88;;;34.50;89.30;;;;;;21040525;28;20451;-79
2022/06/18 13:02:20;;;;;;;10.13;1.70;;;35.80;89.90;;;;;;21043357;28;20478;-80
2022/06/18 13:12:41;;;;;;;12.00;2.25;;;35.40;90.00;;;;;;21047730;28;20566;-80
2022/06/18 13:22:42;;;;;;;10.88;1.65;;;35.80;87.00;;;;;;20990907;28;20173;-79
2022/06/18 13:32:59;;;;;;;11.52;2.13;;;35.20;84.50;;;;;;21060146;28;20060;-78
2022/06/18 13:43:21;;;;;;;18.88;2.50;;;36.00;81.00;;;;;;21074294;28;20056;-79
2022/06/18 13:53:26;;;;;;;17.70;2.67;;;36.30;85.30;;;;;;21025263;28;20090;-78
2022/06/18 14:03:27;;;;;;;14.48;2.40;;;36.20;77.60;;;;;;21006570;28;20044;-77
2022/06/18 14:13:31;;;;;;;17.17;2.30;;;36.30;80.40;;;;;;21051796;28;20058;-78
2022/06/18 14:23:38;;;;;;;18.08;3.15;;;36.10;80.40;;;;;;21070498;28;20089;-78
2022/06/18 14:33:58;;;;;;;21.98;3.10;;;36.40;77.50;;;;;;21031724;28;20280;-77
2022/06/18 14:44:01;;;;;;;;;;;36.00;79.80;;;;;;21045730;28;20044;-78
2022/06/18 14:54:27;;;;;;;19.88;2.50;;;35.60;79.40;;;;;;21076064;28;20022;-79
2022/06/18 15:04:57;;;;;;;28.50;4.65;;;35.90;75.20;;;;;;21037983;28;20072;-79
2022/06/18 15:15:00;;;;;;;21.55;3.15;;;35.70;79.50;;;;;;21040900;28;20201;-79
2022/06/18 15:35:24;;;;;;;25.30;3.13;;;35.90;77.90;;;;;;21082492;28;20054;-76
2022/06/18 15:45:27;;;;;;;13.68;3.00;;;35.60;77.00;;;;;;21088282;28;20281;-77
2022/06/18 15:55:36;;;;;;;21.35;3.75;;;35.10;80.00;;;;;;21082481;28;20032;-78
2022/06/18 16:05:41;;;;;;;27.33;4.57;;;35.20;79.30;;;;;;21026650;28;20059;-78
2022/06/18 16:15:48;;;;;;;29.58;3.22;;;34.40;79.60;;;;;;21040122;28;20040;-77
2022/06/18 16:25:51;;;;;;;17.80;3.63;;;34.40;79.70;;;;;;21068800;28;20090;-77
2022/06/18 16:36:09;;;;;;;21.02;3.75;;;33.80;80.00;;;;;;21038466;28;20044;-78
2022/06/18 16:46:24;;;;;;;22.77;4.60;;;33.80;79.20;;;;;;21073425;28;20052;-78
2022/06/18 16:56:26;;;;;;;26.10;3.88;;;33.50;80.00;;;;;;21019167;28;20128;-78
2022/06/18 17:06:27;;;;;;;28.20;3.88;;;33.30;79.70;;;;;;21065540;28;20040;-78
2022/06/18 17:16:28;;;;;;;22.60;3.30;;;33.50;81.20;;;;;;21096257;28;20086;-77
2022/06/18 17:36:48;;;;;;;21.30;3.70;;;32.80;83.10;;;;;;21065906;28;20068;-77
2022/06/18 17:46:48;;;;;;;16.27;3.08;;;32.40;82.50;;;;;;20966704;22;20156;-77
2022/06/18 17:56:49;;;;;;;19.75;3.42;;;32.00;83.90;;;;;;20894354;28;20049;-77
2022/06/18 18:06:51;;;;;;;21.65;3.38;;;32.30;83.00;;;;;;20942071;28;20044;-78
2022/06/18 18:16:54;;;;;;;21.17;3.40;;;32.20;82.20;;;;;;20977015;28;20082;-78
2022/06/18 18:27:02;;;;;;;28.92;3.58;;;32.20;84.40;;;;;;20976095;28;20049;-78
2022/06/18 18:37:05;;;;;;;22.80;2.85;;;31.70;85.00;;;;;;20975030;28;20083;-79
2022/06/18 18:47:10;;;;;;;16.50;2.83;;;32.00;85.40;;;;;;20982458;28;20113;-78
2022/06/18 18:57:11;;;;;;;22.95;2.70;;;30.40;92.20;;;;;;20973428;28;20045;-78
2022/06/18 19:07:12;;;;;;;19.58;3.97;;;28.50;93.70;;;;;;20922421;28;20049;-78
2022/06/18 19:17:13;;;;;;;22.95;3.72;;;27.60;94.30;;;;;;20887606;28;20589;-79
2022/06/18 19:27:14;;;;;;;31.02;4.15;;;27.50;93.10;;;;;;20926412;28;20071;-78
2022/06/18 19:37:15;;;;;;;23.05;3.58;;;27.00;94.00;;;;;;20994966;28;20048;-80
2022/06/18 19:47:16;;;;;;;27.17;3.60;;;26.30;95.30;;;;;;20990843;28;20041;-78
2022/06/18 19:57:17;;;;;;;16.08;3.35;;;26.40;94.50;;;;;;20991333;28;20478;-79
2022/06/18 20:07:18;;;;;;;24.60;2.30;;;26.40;94.70;;;;;;21002278;28;20064;-79
2022/06/18 20:17:19;;;;;;;31.35;4.72;;;26.10;94.60;;;;;;21005034;28;20097;-79
2022/06/18 20:27:21;;;;;;;24.67;4.05;;;26.00;95.60;;;;;;21011690;28;20064;-79
2022/06/18 20:37:23;;;;;;;20.33;3.17;;;25.80;96.20;;;;;;21009590;28;20055;-79
2022/06/18 20:47:24;;;;;;;20.17;3.55;;;25.60;95.90;;;;;;21004469;28;20037;-79
2022/06/18 20:57:25;;;;;;;24.00;4.18;;;25.40;96.70;;;;;;21006983;28;20037;-79
2022/06/18 21:07:28;;;;;;;26.42;3.05;;;24.70;98.40;;;;;;21001329;28;20040;-79
2022/06/18 21:17:29;;;;;;;16.63;3.92;;;24.20;99.50;;;;;;21002520;28;20051;-79
2022/06/18 21:27:30;;;;;;;;;;;23.90;99.90;;;;;;21001239;28;20040;-79
2022/06/18 21:37:31;;;;;;;19.03;3.53;;;23.00;99.90;;;;;;20999287;28;19909;-79
2022/06/18 21:47:32;;;;;;;17.63;3.63;;;22.60;99.90;;;;;;21001981;28;20036;-79
2022/06/18 21:57:35;;;;;;;;;;;22.60;99.90;;;;;;20950937;28;20032;-79
2022/06/18 22:07:36;;;;;;;22.17;3.13;;;22.70;99.90;;;;;;20996353;28;19920;-78
2022/06/18 22:17:37;;;;;;;23.40;3.13;;;23.00;99.90;;;;;;20976523;28;20511;-78
2022/06/18 22:27:38;;;;;;;22.40;3.45;;;23.50;99.90;;;;;;20923366;28;20025;-78
2022/06/18 22:37:38;;;;;;;16.93;3.30;;;23.00;99.90;;;;;;20911457;28;20120;-78
2022/06/18 22:47:41;;;;;;;20.70;3.38;;;22.00;99.90;;;;;;20910588;28;20638;-79
2022/06/18 22:57:42;;;;;;;20.60;3.20;;;21.80;99.90;;;;;;20925899;28;20041;-77
2022/06/18 23:07:45;;;;;;;13.57;3.80;;;21.50;99.90;;;;;;20951351;28;20039;-77
2022/06/18 23:17:46;;;;;;;15.27;2.92;;;21.40;99.90;;;;;;20949389;28;20376;-77
2022/06/18 23:27:47;;;;;;;22.87;3.23;;;20.70;99.90;;;;;;20967761;28;20032;-77
2022/06/18 23:37:53;;;;;;;15.30;3.53;;;20.60;99.90;;;;;;20990076;28;20490;-77
2022/06/18 23:47:56;;;;;;;26.58;3.33;;;20.60;99.90;;;;;;21061499;22;20135;-78
2022/06/18 23:57:56;;;;;;;19.88;2.80;;;20.50;99.90;;;;;;21056492;28;20067;-78
